Time;durP1;ratioP1;P1;durP2;ratioP2;P2;SDS_P1;SDS_P2;PMS_P1;PMS_P2;Temp;Humidity;BMP_temperature;BMP_pressure;BME280_temperature;BME280_humidity;BME280_pressure;Samples;Min_cycle;Max_cycle;Signal;HPM_P1;HPM_P2
2022/11/16 00:02:12;;;;;;;15.80;8.68;;;;;;;11.16;100.00;100196.88;4972348;28;20054;-66
2022/11/16 00:04:40;;;;;;;13.88;8.77;;;;;;;10.99;100.00;100186.38;4974757;28;20050;-65
2022/11/16 00:07:08;;;;;;;14.43;8.68;;;;;;;11.15;100.00;100182.34;4974689;28;20058;-65
2022/11/16 00:09:36;;;;;;;13.05;8.57;;;;;;;11.19;100.00;100182.59;4974687;28;20417;-65
2022/11/16 00:12:08;;;;;;;15.77;9.23;;;;;;;11.25;100.00;100188.81;4974549;28;20055;-65
2022/11/16 00:14:36;;;;;;;16.30;9.18;;;;;;;11.19;100.00;100187.25;4974809;28;20055;-65
2022/11/16 00:17:04;;;;;;;16.45;9.27;;;;;;;11.26;100.00;100191.28;4974672;28;20051;-65
2022/11/16 00:19:31;;;;;;;14.85;9.57;;;;;;;11.26;100.00;100180.31;4974301;28;20053;-65
2022/11/16 00:21:59;;;;;;;14.90;8.65;;;;;;;11.25;100.00;100178.66;4974400;28;20057;-66
2022/11/16 00:24:27;;;;;;;13.70;8.57;;;;;;;11.17;100.00;100171.13;4974854;28;20065;-65
2022/11/16 00:26:56;;;;;;;13.38;8.30;;;;;;;11.20;100.00;100158.75;4974090;28;20061;-65
2022/11/16 00:29:25;;;;;;;16.27;9.15;;;;;;;11.25;100.00;100166.91;4974450;28;20482;-66
2022/11/16 00:31:54;;;;;;;13.27;8.00;;;;;;;11.10;100.00;100148.75;4973982;28;20070;-65
2022/11/16 00:34:23;;;;;;;15.32;9.25;;;;;;;11.15;100.00;100151.44;4972462;28;20054;-65
2022/11/16 00:36:51;;;;;;;13.93;8.30;;;;;;;11.12;100.00;100147.34;4974334;28;20063;-65
2022/11/16 00:39:19;;;;;;;13.95;7.97;;;;;;;11.14;100.00;100153.34;4987334;28;20058;-65
2022/11/16 00:41:48;;;;;;;11.27;7.78;;;;;;;11.14;100.00;100144.31;4989206;28;20051;-65
2022/11/16 00:44:17;;;;;;;13.23;8.55;;;;;;;11.19;100.00;100138.75;4974149;28;20066;-65
2022/11/16 00:46:46;;;;;;;13.57;8.13;;;;;;;11.18;100.00;100142.63;4972817;28;20059;-65
2022/11/16 00:49:14;;;;;;;13.57;8.07;;;;;;;11.20;100.00;100134.09;4974375;28;20050;-65
2022/11/16 00:51:42;;;;;;;12.60;8.20;;;;;;;11.30;100.00;100142.19;4988710;28;20398;-66
2022/11/16 00:54:10;;;;;;;11.57;7.78;;;;;;;11.26;100.00;100136.50;4972194;28;20390;-65
2022/11/16 00:56:39;;;;;;;12.35;8.57;;;;;;;11.22;100.00;100129.97;4988563;28;20518;-65
2022/11/16 00:59:07;;;;;;;14.35;8.80;;;;;;;11.20;100.00;100147.81;4974348;28;20054;-65
2022/11/16 01:01:35;;;;;;;14.48;8.05;;;;;;;11.26;100.00;100127.44;4972401;28;20054;-65
2022/11/16 01:04:03;;;;;;;14.23;8.48;;;;;;;11.34;100.00;100132.25;4973787;28;20062;-66
2022/11/16 01:06:30;;;;;;;13.68;8.65;;;;;;;11.26;100.00;100113.75;4972723;28;20051;-65
2022/11/16 01:09:01;;;;;;;14.45;8.68;;;;;;;11.25;100.00;100115.66;4972188;28;20062;-65
2022/11/16 01:14:15;;;;;;;13.05;8.38;;;;;;;11.19;100.00;100103.16;4973451;28;20067;-66
2022/11/16 01:16:43;;;;;;;13.50;7.82;;;;;;;11.22;100.00;100097.09;4972145;28;20058;-65
2022/11/16 01:19:11;;;;;;;12.23;7.43;;;;;;;11.32;100.00;100100.78;4973539;28;20054;-65
2022/11/16 01:21:38;;;;;;;12.68;7.35;;;;;;;11.35;100.00;100105.69;4972665;28;20532;-65
2022/11/16 01:24:06;;;;;;;12.20;8.45;;;;;;;11.36;100.00;100097.19;4972229;28;20055;-65
2022/11/16 01:26:34;;;;;;;13.27;8.15;;;;;;;11.40;100.00;100097.41;4973800;28;20051;-65
2022/11/16 01:29:02;;;;;;;12.25;7.53;;;;;;;11.42;100.00;100100.63;4973410;28;20055;-65
2022/11/16 01:31:34;;;;;;;11.32;7.68;;;;;;;11.35;100.00;100087.31;4972674;28;20043;-65
2022/11/16 01:34:03;;;;;;;13.60;7.93;;;;;;;11.31;100.00;100088.22;4988105;28;20055;-65
2022/11/16 01:36:32;;;;;;;13.05;7.80;;;;;;;11.32;100.00;100087.09;4973545;28;20409;-65
2022/11/16 01:39:03;;;;;;;15.10;8.50;;;;;;;11.45;100.00;100088.28;4987871;28;20057;-65
2022/11/16 01:41:42;;;;;;;13.00;7.95;;;;;;;11.39;100.00;100074.66;4972473;28;20046;-65
2022/11/16 01:44:13;;;;;;;12.87;8.67;;;;;;;11.39;100.00;100074.66;4971917;28;20054;-65
2022/11/16 01:46:50;;;;;;;16.15;9.18;;;;;;;11.29;100.00;100077.53;4972380;28;20058;-65
2022/11/16 01:49:22;;;;;;;13.15;8.27;;;;;;;11.19;100.00;100066.75;4971878;28;20063;-65
2022/11/16 01:51:58;;;;;;;14.48;8.88;;;;;;;11.33;100.00;100058.59;4973467;28;20505;-65
2022/11/16 01:54:29;;;;;;;13.40;8.73;;;;;;;11.38;100.00;100058.50;4988402;28;20115;-65
2022/11/16 01:57:04;;;;;;;15.05;8.82;;;;;;;11.38;100.00;100056.59;4971628;28;20483;-65
2022/11/16 01:59:54;;;;;;;12.63;8.25;;;;;;;11.33;100.00;100058.59;4971521;28;20058;-66
2022/11/16 02:02:24;;;;;;;16.08;8.85;;;;;;;11.34;100.00;100057.50;4972027;28;20051;-66
2022/11/16 02:04:53;;;;;;;13.43;7.95;;;;;;;11.34;100.00;100055.53;4971568;28;20109;-66
2022/11/16 02:11:02;;;;;;;;;;;;;;;11.35;100.00;100048.16;4972523;28;19922;-66
2022/11/16 02:13:41;;;;;;;14.50;9.15;;;;;;;11.43;100.00;100039.25;4965835;28;19933;-66
2022/11/16 02:17:00;;;;;;;15.93;9.40;;;;;;;11.24;100.00;100031.88;4977533;28;20055;-66
2022/11/16 02:19:54;;;;;;;13.47;9.40;;;;;;;11.29;100.00;100029.06;4966306;28;20054;-66
2022/11/16 02:22:35;;;;;;;18.23;10.57;;;;;;;11.29;100.00;100025.50;4975666;28;20047;-66
2022/11/16 02:25:32;;;;;;;14.65;9.27;;;;;;;11.28;100.00;100019.22;4975465;28;20398;-65
2022/11/16 02:28:34;;;;;;;14.25;8.43;;;;;;;11.31;100.00;100014.25;4975630;28;20524;-65
2022/11/16 02:31:06;;;;;;;15.25;9.23;;;;;;;11.26;100.00;100001.44;4975123;28;20065;-66
2022/11/16 02:33:40;;;;;;;13.93;9.25;;;;;;;11.28;100.00;100007.44;4976431;28;20410;-66
2022/11/16 02:36:13;;;;;;;12.93;8.10;;;;;;;11.22;100.00;99987.53;4975285;28;20047;-65
2022/11/16 02:38:48;;;;;;;14.50;8.25;;;;;;;11.20;100.00;99988.97;4975866;28;20047;-66
2022/11/16 02:41:19;;;;;;;14.70;8.52;;;;;;;11.39;100.00;99988.94;4975326;28;20046;-65
2022/11/16 02:43:58;;;;;;;15.00;7.90;;;;;;;11.25;100.00;99978.72;4976731;28;20493;-65
2022/11/16 02:46:35;;;;;;;11.18;7.57;;;;;;;11.35;100.00;99983.19;4975291;28;20066;-65
2022/11/16 02:49:11;;;;;;;12.93;7.70;;;;;;;11.23;100.00;99977.38;4975587;28;20042;-65
2022/11/16 02:51:41;;;;;;;12.15;8.00;;;;;;;11.23;100.00;99978.22;4975108;28;20081;-65
2022/11/16 02:54:23;;;;;;;14.45;8.05;;;;;;;11.36;100.00;99981.28;4976160;28;20398;-65
2022/11/16 02:57:23;;;;;;;11.45;8.10;;;;;;;11.32;100.00;99972.03;4975210;28;20058;-65
2022/11/16 02:59:56;;;;;;;9.50;6.45;;;;;;;11.24;100.00;99963.41;4974742;28;20043;-65
2022/11/16 03:02:58;;;;;;;11.32;7.10;;;;;;;11.37;100.00;99969.22;4975031;28;20051;-65
2022/11/16 03:05:36;;;;;;;11.38;7.63;;;;;;;11.36;100.00;99964.84;4954712;29;20070;-65
2022/11/16 03:08:14;;;;;;;10.07;7.00;;;;;;;11.38;100.00;99968.09;4974256;28;20059;-65
2022/11/16 03:13:37;;;;;;;11.23;7.35;;;;;;;11.30;100.00;99955.94;4974117;28;20051;-65
2022/11/16 03:16:29;;;;;;;12.95;7.57;;;;;;;11.38;100.00;99946.19;4975908;28;20054;-65
2022/11/16 03:19:01;;;;;;;12.90;7.35;;;;;;;11.33;100.00;99960.00;4974553;28;20055;-65
2022/11/16 03:21:32;;;;;;;12.85;7.90;;;;;;;11.40;100.00;99949.44;4974441;28;20434;-65
2022/11/16 03:24:02;;;;;;;12.68;7.20;;;;;;;11.36;100.00;99937.47;4973704;28;20055;-65
2022/11/16 03:26:44;;;;;;;12.30;7.18;;;;;;;11.36;100.00;99937.47;4973910;28;20402;-65
2022/11/16 03:29:39;;;;;;;12.35;7.60;;;;;;;11.38;100.00;99925.09;4972740;28;20047;-65
2022/11/16 03:32:19;;;;;;;13.20;7.93;;;;;;;11.35;100.00;99924.88;4974672;28;20055;-65
2022/11/16 03:34:58;;;;;;;13.05;8.05;;;;;;;11.22;100.00;99919.06;4975489;28;20059;-65
2022/11/16 03:37:28;;;;;;;12.10;7.75;;;;;;;11.34;100.00;99920.53;4973968;28;20057;-65
2022/11/16 03:40:00;;;;;;;13.30;7.95;;;;;;;11.37;100.00;99909.78;4974709;28;20039;-65
2022/11/16 03:42:32;;;;;;;12.07;7.45;;;;;;;11.32;100.00;99909.03;4974637;28;20059;-65
2022/11/16 03:45:02;;;;;;;10.82;6.82;;;;;;;11.44;100.00;99920.31;4975464;28;20061;-65
2022/11/16 03:47:33;;;;;;;9.30;6.53;;;;;;;11.42;100.00;99914.34;4989609;28;20054;-65
2022/11/16 03:50:03;;;;;;;13.27;8.10;;;;;;;11.42;100.00;99908.84;4973749;28;20054;-65
2022/11/16 03:52:31;;;;;;;11.73;7.72;;;;;;;11.53;100.00;99910.28;4974904;28;20074;-65
2022/11/16 03:54:59;;;;;;;10.48;6.97;;;;;;;11.51;100.00;99906.22;4973991;28;20047;-65
2022/11/16 03:57:27;;;;;;;11.00;7.20;;;;;;;11.50;100.00;99901.88;4973640;28;20482;-65
2022/11/16 03:59:58;;;;;;;9.93;6.20;;;;;;;11.44;100.00;99906.63;4973889;28;20497;-65
2022/11/16 04:02:26;;;;;;;8.35;6.10;;;;;;;11.40;100.00;99911.09;4974874;28;20051;-65
2022/11/16 04:25:02;;;;;;;6.40;5.10;;;;;;;11.46;100.00;99903.59;4973037;28;20058;-65
2022/11/16 04:28:16;;;;;;;8.20;5.30;;;;;;;11.38;100.00;99907.81;4973532;28;20042;-65
2022/11/16 04:30:19;;;;;;;6.38;5.15;;;;;;;11.39;100.00;99901.25;4967043;28;20043;-65
2022/11/16 04:38:21;;;;;;;6.30;4.90;;;;;;;11.34;100.00;99880.22;4974693;28;20414;-65
2022/11/16 04:40:49;;;;;;;8.45;4.95;;;;;;;11.29;100.00;99878.41;4972746;28;20050;-65
2022/11/16 04:43:17;;;;;;;5.82;5.05;;;;;;;11.41;100.00;99868.88;4974518;28;20062;-65
2022/11/16 04:48:39;;;;;;;6.25;4.68;;;;;;;11.24;100.00;99859.31;4960660;28;20057;-65
2022/11/16 04:51:08;;;;;;;5.50;4.53;;;;;;;11.38;100.00;99864.00;4973309;28;20076;-65
2022/11/16 04:53:36;;;;;;;7.47;5.18;;;;;;;11.44;100.00;99860.03;4974195;28;20050;-65
2022/11/16 04:56:13;;;;;;;5.32;4.60;;;;;;;11.35;100.00;99867.34;4989379;28;20042;-68
2022/11/16 04:58:41;;;;;;;7.80;5.28;;;;;;;11.32;100.00;99854.25;4973095;28;20116;-65
2022/11/16 05:01:12;;;;;;;6.80;4.70;;;;;;;11.25;100.00;99849.97;4988560;28;20050;-65
2022/11/16 05:03:42;;;;;;;6.75;4.97;;;;;;;11.36;100.00;99849.81;4973020;28;20509;-65
2022/11/16 05:06:10;;;;;;;9.70;5.65;;;;;;;11.46;100.00;99859.75;4988924;28;20070;-65
2022/11/16 05:08:38;;;;;;;9.48;5.78;;;;;;;11.40;100.00;99853.56;4957031;28;20494;-65
2022/11/16 05:11:06;;;;;;;8.48;5.25;;;;;;;11.41;100.00;99857.94;4972985;28;20046;-65
2022/11/16 05:13:33;;;;;;;10.15;5.63;;;;;;;11.43;100.00;99850.22;4972463;28;20113;-65
2022/11/16 05:16:02;;;;;;;9.32;6.15;;;;;;;11.48;100.00;99854.78;4973161;28;20482;-65
2022/11/16 05:18:30;;;;;;;10.00;6.30;;;;;;;11.46;100.00;99855.09;4973357;28;20482;-66
2022/11/16 05:20:59;;;;;;;9.45;6.15;;;;;;;11.39;100.00;99852.75;4988468;28;20043;-66
2022/11/16 05:26:29;;;;;;;6.68;5.00;;;;;;;11.43;100.00;99850.22;4971465;28;20055;-67
2022/11/16 05:28:57;;;;;;;8.68;5.57;;;;;;;11.39;100.00;99850.00;4954502;28;20047;-67
2022/11/16 05:31:25;;;;;;;6.20;4.85;;;;;;;11.42;100.00;99843.09;4956637;28;20042;-67
2022/11/16 05:33:54;;;;;;;7.45;5.15;;;;;;;11.46;100.00;99848.78;4970511;28;20054;-65
2022/11/16 05:36:22;;;;;;;10.52;6.10;;;;;;;11.35;100.00;99840.75;4966491;28;20047;-67
2022/11/16 05:38:50;;;;;;;10.00;5.60;;;;;;;11.35;100.00;99859.94;4971638;28;20469;-67
2022/11/16 05:41:25;;;;;;;8.45;5.18;;;;;;;11.28;100.00;99862.25;4972298;28;20046;-68
2022/11/16 05:43:54;;;;;;;6.28;4.85;;;;;;;11.24;100.00;99853.06;4971663;28;20382;-67
2022/11/16 05:46:23;;;;;;;8.93;5.53;;;;;;;11.34;100.00;99857.53;4971672;28;20073;-67
2022/11/16 05:48:51;;;;;;;7.72;5.55;;;;;;;11.23;100.00;99857.69;4971974;28;20043;-65
2022/11/16 05:51:19;;;;;;;7.35;5.43;;;;;;;11.25;100.00;99852.72;4971100;28;20423;-65
2022/11/16 05:53:50;;;;;;;5.55;4.70;;;;;;;11.28;100.00;99854.88;4971795;28;20051;-65
2022/11/16 05:56:21;;;;;;;5.18;4.35;;;;;;;11.23;100.00;99852.22;4971476;28;20055;-65
2022/11/16 05:58:52;;;;;;;4.25;3.60;;;;;;;11.19;100.00;99851.19;4970331;28;20051;-65
2022/11/16 06:01:20;;;;;;;5.38;4.10;;;;;;;11.31;100.00;99849.91;4969949;28;20051;-65
2022/11/16 06:03:50;;;;;;;4.35;3.92;;;;;;;11.34;100.00;99852.84;4970385;28;20058;-65
2022/11/16 06:06:19;;;;;;;5.90;4.15;;;;;;;11.34;100.00;99852.03;4970590;28;20053;-65
2022/11/16 06:08:48;;;;;;;5.35;3.85;;;;;;;11.23;100.00;99851.41;4966747;28;20525;-64
2022/11/16 06:11:20;;;;;;;5.30;4.05;;;;;;;11.27;100.00;99845.03;4960455;28;20043;-65
2022/11/16 06:13:49;;;;;;;4.45;3.90;;;;;;;11.28;100.00;99843.91;4968123;28;20387;-65
2022/11/16 06:16:17;;;;;;;4.80;3.95;;;;;;;11.27;100.00;99842.28;4967399;28;20049;-65
2022/11/16 06:18:47;;;;;;;4.82;3.58;;;;;;;11.43;100.00;99839.25;4969101;28;20042;-81
2022/11/16 06:21:19;;;;;;;4.75;3.75;;;;;;;11.70;100.00;99830.19;4928585;29;20058;-66
2022/11/16 06:23:47;;;;;;;3.83;3.53;;;;;;;11.54;100.00;99824.22;4958086;28;20047;-65
2022/11/16 06:26:16;;;;;;;5.03;4.13;;;;;;;11.49;100.00;99816.13;4963030;28;20058;-66
2022/11/16 06:28:45;;;;;;;4.70;3.50;;;;;;;11.41;100.00;99814.09;4967617;28;20050;-65
2022/11/16 06:31:13;;;;;;;4.38;3.58;;;;;;;11.53;100.00;99814.41;4971524;28;20054;-66
2022/11/16 06:33:42;;;;;;;3.65;3.35;;;;;;;11.51;100.00;99819.38;4970020;28;20066;-66
2022/11/16 06:36:18;;;;;;;3.35;2.60;;;;;;;11.45;100.00;99808.81;4963526;28;20051;-66
2022/11/16 06:38:46;;;;;;;3.30;3.00;;;;;;;11.45;100.00;99815.13;4968438;28;20518;-66
2022/11/16 06:41:15;;;;;;;3.17;2.88;;;;;;;11.48;100.00;99798.06;4958543;28;20046;-66
2022/11/16 06:43:47;;;;;;;5.28;3.33;;;;;;;11.55;100.00;99806.66;4971485;28;20524;-66
2022/11/16 06:46:18;;;;;;;3.10;2.80;;;;;;;11.58;100.00;99799.78;4966164;28;20522;-66
2022/11/16 06:48:46;;;;;;;3.58;2.83;;;;;;;11.49;100.00;99805.16;4970886;28;20054;-66
2022/11/16 06:51:15;;;;;;;3.63;3.33;;;;;;;11.61;100.00;99806.56;4971287;28;20058;-66
2022/11/16 06:53:42;;;;;;;3.80;3.40;;;;;;;11.47;100.00;99810.13;4972308;28;20498;-66
2022/11/16 06:56:14;;;;;;;5.40;3.88;;;;;;;11.55;100.00;99798.44;4969707;28;20055;-64
2022/11/16 06:58:47;;;;;;;3.40;3.00;;;;;;;11.64;100.00;99800.50;4970285;28;20054;-64
2022/11/16 07:01:20;;;;;;;4.73;3.30;;;;;;;11.58;100.00;99786.06;4974847;28;20047;-64
2022/11/16 07:03:49;;;;;;;3.72;3.25;;;;;;;11.63;100.00;99782.44;4974783;28;20062;-65
2022/11/16 07:06:18;;;;;;;4.78;3.20;;;;;;;11.56;100.00;99778.19;4975928;28;20051;-64
2022/11/16 07:08:46;;;;;;;3.70;2.90;;;;;;;11.72;100.00;99775.09;4974799;28;20047;-64
2022/11/16 07:11:19;;;;;;;4.85;3.33;;;;;;;11.77;100.00;99771.41;4974788;28;20153;-64
2022/11/16 07:13:49;;;;;;;4.20;3.47;;;;;;;11.85;100.00;99770.69;4973822;28;20051;-64
2022/11/16 07:16:17;;;;;;;4.35;3.35;;;;;;;11.90;100.00;99769.78;4989508;28;20066;-64
2022/11/16 07:18:52;;;;;;;5.70;3.45;;;;;;;11.89;100.00;99759.94;4991036;28;20038;-64
2022/11/16 07:21:20;;;;;;;4.68;3.28;;;;;;;11.89;100.00;99763.50;4974024;28;20058;-65
2022/11/16 07:23:48;;;;;;;6.65;3.97;;;;;;;12.10;100.00;99757.56;4970675;28;20397;-64
2022/11/16 07:26:19;;;;;;;5.93;4.10;;;;;;;12.15;100.00;99764.84;4962250;28;20606;-64
2022/11/16 07:28:57;;;;;;;5.35;4.00;;;;;;;12.10;100.00;99746.59;4970140;28;20490;-64
2022/11/16 07:31:25;;;;;;;5.30;4.30;;;;;;;11.82;100.00;99749.38;4954610;29;20051;-64
2022/11/16 07:34:25;;;;;;;4.70;3.83;;;;;;;11.94;100.00;99738.69;4944194;28;20376;-64
2022/11/16 07:37:06;;;;;;;4.22;3.38;;;;;;;11.99;100.00;99728.72;4955202;29;20070;-65
2022/11/16 07:39:34;;;;;;;3.58;3.03;;;;;;;12.12;100.00;99729.81;4970824;28;20055;-64
2022/11/16 07:42:10;;;;;;;4.40;3.35;;;;;;;12.08;100.00;99719.47;4962482;28;20046;-64
2022/11/16 07:45:11;;;;;;;5.18;3.55;;;;;;;12.02;100.00;99717.16;4952410;28;20081;-64
2022/11/16 07:47:46;;;;;;;4.28;3.47;;;;;;;12.16;100.00;99722.56;4974068;28;20505;-64
2022/11/16 07:50:22;;;;;;;3.50;3.20;;;;;;;12.08;100.00;99718.66;4985062;28;20449;-65
2022/11/16 07:52:54;;;;;;;4.07;3.35;;;;;;;12.13;100.00;99715.81;4973667;28;20079;-64
2022/11/16 07:55:24;;;;;;;4.55;3.65;;;;;;;12.07;100.00;99712.38;4972852;28;20050;-64
2022/11/16 07:57:52;;;;;;;5.78;4.45;;;;;;;11.93;100.00;99733.53;4969666;28;20502;-65
2022/11/16 08:00:23;;;;;;;4.93;4.10;;;;;;;12.10;100.00;99735.63;4953981;29;20070;-65
2022/11/16 08:02:59;;;;;;;6.72;4.10;;;;;;;12.07;100.00;99734.31;4954665;29;20070;-65
2022/11/16 08:05:26;;;;;;;4.90;3.65;;;;;;;12.20;100.00;99729.06;4954554;29;20487;-65
2022/11/16 08:07:54;;;;;;;5.05;4.35;;;;;;;12.32;100.00;99712.84;4953580;29;20066;-65
2022/11/16 08:10:24;;;;;;;5.18;4.38;;;;;;;12.42;100.00;99710.97;4954257;28;20054;-65
2022/11/16 08:12:54;;;;;;;5.35;3.70;;;;;;;12.36;100.00;99722.09;4953683;29;20054;-65
2022/11/16 08:15:28;;;;;;;5.47;4.30;;;;;;;12.63;100.00;99728.53;4955209;28;20515;-65
2022/11/16 08:17:57;;;;;;;6.80;4.80;;;;;;;12.49;100.00;99722.31;4953724;29;20069;-65
2022/11/16 08:20:27;;;;;;;5.72;4.15;;;;;;;12.59;100.00;99726.72;4953615;29;20047;-65
2022/11/16 08:22:59;;;;;;;5.07;4.25;;;;;;;12.70;100.00;99735.53;4953541;28;20051;-65
2022/11/16 08:25:31;;;;;;;6.32;4.28;;;;;;;12.88;100.00;99742.72;4954164;29;20497;-65
2022/11/16 08:27:59;;;;;;;5.82;4.30;;;;;;;12.84;100.00;99744.47;4954327;29;20059;-65
2022/11/16 08:30:27;;;;;;;5.63;4.63;;;;;;;12.86;100.00;99752.38;4954753;29;20482;-64
2022/11/16 08:32:55;;;;;;;4.93;4.07;;;;;;;12.90;100.00;99750.63;4953663;28;20718;-64
2022/11/16 08:35:23;;;;;;;7.57;5.25;;;;;;;12.99;100.00;99753.41;4954821;28;20059;-64
2022/11/16 08:37:51;;;;;;;7.40;5.25;;;;;;;13.05;100.00;99752.13;4969757;28;20058;-70
2022/11/16 08:40:19;;;;;;;8.13;5.20;;;;;;;13.09;100.00;99753.13;4969856;28;20069;-70
2022/11/16 08:42:47;;;;;;;8.35;5.88;;;;;;;13.15;100.00;99751.84;4954138;29;20052;-71
2022/11/16 08:45:16;;;;;;;7.68;5.22;;;;;;;13.11;100.00;99756.34;4953549;29;20062;-70
2022/11/16 08:47:45;;;;;;;6.93;5.35;;;;;;;13.22;99.11;99756.91;4953315;29;20058;-69
2022/11/16 08:50:13;;;;;;;6.53;4.68;;;;;;;13.31;97.97;99754.97;4953324;29;20050;-69
2022/11/16 08:52:40;;;;;;;5.30;4.60;;;;;;;13.10;100.00;99762.97;4954614;29;20062;-69
2022/11/16 08:55:12;;;;;;;5.38;4.63;;;;;;;13.26;99.22;99765.31;4969036;28;20136;-69
2022/11/16 08:57:42;;;;;;;5.78;4.75;;;;;;;13.24;100.00;99764.81;4953167;29;20051;-70
2022/11/16 09:00:12;;;;;;;7.13;5.03;;;;;;;13.25;100.00;99764.50;4953387;29;20402;-71
2022/11/16 09:02:39;;;;;;;6.18;4.43;;;;;;;13.32;99.10;99761.28;4954955;28;20055;-70
2022/11/16 09:05:10;;;;;;;6.75;4.80;;;;;;;13.30;99.46;99755.31;4954685;28;20051;-65
2022/11/16 09:07:39;;;;;;;6.05;5.00;;;;;;;13.41;100.00;99745.63;4954930;29;20047;-65
2022/11/16 09:10:07;;;;;;;7.35;4.90;;;;;;;13.48;98.70;99747.16;4954309;28;20066;-65
2022/11/16 09:12:36;;;;;;;7.28;5.20;;;;;;;13.49;98.58;99751.50;4954653;29;20047;-65
2022/11/16 09:15:05;;;;;;;8.02;4.65;;;;;;;13.57;97.88;99753.44;4953959;28;20058;-66
2022/11/16 09:17:33;;;;;;;8.55;5.57;;;;;;;13.63;99.55;99754.91;4954891;28;20540;-66
2022/11/16 09:20:00;;;;;;;7.13;5.30;;;;;;;13.44;98.50;99752.41;4954713;28;20058;-66
2022/11/16 09:22:28;;;;;;;7.38;5.30;;;;;;;13.53;100.00;99758.78;4953733;28;20051;-66
2022/11/16 09:24:56;;;;;;;7.15;4.75;;;;;;;13.47;98.96;99767.50;4954142;28;20051;-66
2022/11/16 09:27:24;;;;;;;6.80;5.25;;;;;;;13.50;99.24;99753.13;4954624;29;20124;-66
2022/11/16 09:29:51;;;;;;;7.00;4.60;;;;;;;13.57;97.23;99764.44;4954480;29;20043;-66
2022/11/16 09:32:19;;;;;;;6.03;4.70;;;;;;;13.35;98.14;99765.34;4962473;28;20520;-66
2022/11/16 09:34:47;;;;;;;6.97;5.00;;;;;;;13.31;99.60;99763.22;4973614;28;20490;-66
2022/11/16 09:37:15;;;;;;;7.07;5.00;;;;;;;13.27;99.66;99753.19;4973608;28;20047;-68
2022/11/16 09:39:42;;;;;;;7.20;4.78;;;;;;;13.19;99.62;99764.97;4973674;28;20046;-67
2022/11/16 09:42:39;;;;;;;8.25;5.80;;;;;;;13.30;100.00;99769.06;4973302;28;20055;-68
2022/11/16 09:45:30;;;;;;;7.30;5.30;;;;;;;13.33;98.96;99760.16;4973507;28;20046;-68
2022/11/16 09:48:04;;;;;;;6.10;4.88;;;;;;;13.48;97.97;99764.44;4973062;28;20544;-68
2022/11/16 09:50:35;;;;;;;6.47;4.97;;;;;;;13.49;98.15;99757.78;4973441;28;20387;-68
2022/11/16 09:53:17;;;;;;;7.57;5.10;;;;;;;13.60;99.12;99754.75;4972928;28;20062;-68
2022/11/16 09:55:51;;;;;;;7.78;5.15;;;;;;;13.54;98.58;99746.66;4973016;28;20414;-69
2022/11/16 09:58:25;;;;;;;;;;;;;;;13.70;98.94;99736.00;4973970;28;20046;-70
2022/11/16 10:01:04;;;;;;;9.77;5.43;;;;;;;14.16;97.66;99730.19;4973343;28;20293;-70
2022/11/16 10:03:40;;;;;;;6.57;4.78;;;;;;;14.56;97.20;99709.88;4973773;28;20398;-70
2022/11/16 10:06:19;;;;;;;7.47;5.00;;;;;;;14.98;94.65;99708.44;4973410;28;20505;-70
2022/11/16 10:08:55;;;;;;;8.63;5.28;;;;;;;15.30;91.10;99695.97;4972610;28;20070;-70
2022/11/16 10:11:41;;;;;;;4.25;3.85;;;;;;;15.28;90.19;99670.69;4972531;28;20046;-70
2022/11/16 10:14:34;;;;;;;6.43;4.47;;;;;;;15.20;91.30;99654.22;4988106;28;20061;-70
2022/11/16 10:17:16;;;;;;;5.45;4.40;;;;;;;15.05;89.85;99661.91;4973705;28;20055;-70
2022/11/16 10:20:24;;;;;;;8.60;5.13;;;;;;;15.16;89.63;99670.59;4973117;28;20054;-69
2022/11/16 10:23:28;;;;;;;7.55;4.40;;;;;;;15.41;88.86;99662.50;4973556;28;20050;-70
2022/11/16 10:26:05;;;;;;;6.55;4.50;;;;;;;15.51;88.35;99670.38;4972673;28;20047;-70
2022/11/16 10:28:48;;;;;;;6.03;4.43;;;;;;;15.31;89.30;99664.50;4972461;28;20146;-70
2022/11/16 10:31:42;;;;;;;7.28;5.00;;;;;;;15.14;89.59;99651.66;4955981;28;20046;-70
2022/11/16 10:34:22;;;;;;;5.72;4.47;;;;;;;14.60;90.97;99644.75;4974342;28;20042;-70
2022/11/16 10:36:56;;;;;;;6.32;4.03;;;;;;;14.67;90.88;99630.50;4976790;28;20058;-70
2022/11/16 10:39:26;;;;;;;6.35;4.35;;;;;;;14.74;92.63;99630.81;4976790;28;20054;-70
2022/11/16 10:41:55;;;;;;;6.53;5.13;;;;;;;14.98;91.96;99634.88;4975479;28;20045;-70
2022/11/16 10:44:37;;;;;;;6.65;4.88;;;;;;;14.92;91.80;99625.22;4976633;28;20046;-70
2022/11/16 10:47:15;;;;;;;5.20;4.20;;;;;;;14.80;91.99;99627.88;4976559;28;20046;-70
2022/11/16 10:50:15;;;;;;;6.03;4.38;;;;;;;14.90;90.81;99627.47;4976447;28;20066;-70
2022/11/16 10:52:43;;;;;;;8.15;4.30;;;;;;;14.77;92.64;99613.59;4976384;28;20047;-70
2022/11/16 10:55:15;;;;;;;6.13;4.97;;;;;;;14.62;90.81;99603.13;4976322;28;20042;-70
2022/11/16 10:58:02;;;;;;;6.30;4.03;;;;;;;14.41;91.45;99612.13;4975297;28;20050;-70
2022/11/16 11:00:41;;;;;;;5.75;4.45;;;;;;;14.37;90.76;99603.72;4975044;28;20045;-71
2022/11/16 11:03:10;;;;;;;5.88;4.30;;;;;;;14.42;92.63;99597.22;4976296;28;20414;-70
2022/11/16 11:05:57;;;;;;;8.63;5.25;;;;;;;14.24;91.12;99582.72;4976204;28;20080;-70
2022/11/16 11:08:31;;;;;;;6.82;4.57;;;;;;;14.38;92.36;99591.56;4976113;28;20054;-70
2022/11/16 11:14:09;;;;;;;6.03;4.53;;;;;;;14.67;90.88;99597.44;4974580;28;20050;-70
2022/11/16 11:16:40;;;;;;;6.20;4.65;;;;;;;14.73;90.81;99576.84;4976243;28;20054;-70
2022/11/16 11:19:18;;;;;;;6.07;4.57;;;;;;;14.92;90.97;99578.38;4975004;28;20065;-71
2022/11/16 11:21:46;;;;;;;6.00;4.35;;;;;;;14.98;92.16;99573.47;4975884;28;20047;-71
2022/11/16 11:24:17;;;;;;;6.85;4.05;;;;;;;15.10;90.02;99567.22;4974668;28;20043;-70
2022/11/16 11:27:05;;;;;;;5.70;3.92;;;;;;;15.13;89.77;99569.31;4990736;28;20039;-70
2022/11/16 11:29:39;;;;;;;6.88;4.38;;;;;;;15.10;89.86;99558.97;4975785;28;20504;-70
2022/11/16 11:32:14;;;;;;;6.97;4.50;;;;;;;15.03;88.47;99554.81;4975675;28;20047;-70
2022/11/16 11:34:52;;;;;;;8.57;4.90;;;;;;;15.00;88.68;99555.47;4975754;28;20130;-70
2022/11/16 11:37:33;;;;;;;8.35;5.55;;;;;;;15.08;88.52;99550.22;4975775;28;20046;-70
2022/11/16 11:40:24;;;;;;;9.30;5.53;;;;;;;15.10;89.62;99547.94;4975736;28;20054;-70
2022/11/16 11:43:00;;;;;;;7.60;5.55;;;;;;;15.25;89.44;99539.06;4975605;28;20405;-70
2022/11/16 11:45:52;;;;;;;6.25;4.78;;;;;;;15.20;89.29;99535.72;4974883;28;20042;-70
2022/11/16 11:48:55;;;;;;;7.78;4.22;;;;;;;15.50;87.76;99527.34;4975060;28;20047;-70
2022/11/16 11:51:32;;;;;;;7.57;4.90;;;;;;;15.50;88.62;99538.38;4964263;28;20058;-71
2022/11/16 11:54:02;;;;;;;7.70;4.63;;;;;;;15.45;87.43;99544.91;4975399;28;20058;-70
2022/11/16 11:56:32;;;;;;;7.70;4.70;;;;;;;15.33;86.61;99545.66;4975446;28;20055;-70
2022/11/16 11:59:03;;;;;;;7.47;5.32;;;;;;;15.46;87.85;99549.25;4975463;28;20054;-70
2022/11/16 12:01:42;;;;;;;6.72;4.95;;;;;;;15.41;86.04;99546.72;4975247;28;20062;-70
2022/11/16 12:04:30;;;;;;;8.80;5.15;;;;;;;15.37;87.05;99541.06;4975339;28;20688;-70
2022/11/16 12:06:58;;;;;;;6.75;5.03;;;;;;;15.35;88.29;99540.59;4975321;28;20047;-70
2022/11/16 12:09:39;;;;;;;8.55;4.80;;;;;;;15.33;87.71;99534.63;4975232;28;20050;-71
2022/11/16 12:12:28;;;;;;;9.43;5.03;;;;;;;15.42;87.94;99534.53;4975102;28;20051;-71
2022/11/16 12:15:26;;;;;;;7.47;4.55;;;;;;;15.38;86.79;99544.63;4975091;28;20050;-70
2022/11/16 12:18:09;;;;;;;6.72;4.88;;;;;;;15.19;86.54;99534.88;4975188;28;20054;-71
2022/11/16 12:20:46;;;;;;;5.57;4.32;;;;;;;15.35;88.03;99534.28;4974553;28;20065;-71
2022/11/16 12:23:23;;;;;;;6.25;4.13;;;;;;;15.09;87.97;99524.28;4973917;28;20047;-71
2022/11/16 12:25:57;;;;;;;7.25;4.50;;;;;;;15.21;86.78;99527.13;4958112;28;20051;-71
2022/11/16 12:28:53;;;;;;;5.85;4.35;;;;;;;15.48;85.13;99524.13;4974813;28;20050;-71
2022/11/16 12:31:56;;;;;;;5.88;4.22;;;;;;;15.68;86.16;99512.22;4974723;28;20051;-71
2022/11/16 12:34:56;;;;;;;5.85;4.18;;;;;;;15.65;84.09;99506.59;4974801;28;20055;-71
2022/11/16 12:37:34;;;;;;;7.43;4.20;;;;;;;15.39;84.73;99510.41;4974883;28;20051;-71
2022/11/16 12:40:30;;;;;;;5.32;4.30;;;;;;;15.66;84.95;99508.19;4974655;28;20047;-71